| time (UTC) | temp F | wind direction | speed MPH | gust MPH | rain 1hr in | rain 24hr in | rain mn in | humidity % | barometer mb |
| 20260510191949 | 58 | 33 | 11.0 | 19.0 | 0.00 | 0.00 | 0.00 | 71 | 1008.7 |
| 20260510190950 | 59 | 32 | 9.0 | 16.0 | 0.00 | 0.00 | 0.00 | 70 | 1008.7 |
| 20260510185950 | 59 | 32 | 10.0 | 15.0 | 0.00 | 0.00 | 0.00 | 70 | 1008.7 |
| 20260510184949 | 60 | 33 | 9.0 | 14.0 | 0.00 | 0.00 | 0.00 | 70 | 1008.7 |
| 20260510183950 | 60 | 33 | 9.0 | 15.0 | 0.00 | 0.00 | 0.00 | 69 | 1008.7 |
| 20260510182950 | 60 | 29 | 10.0 | 18.0 | 0.00 | 0.00 | 0.00 | 68 | 1008.7 |
| 20260510181950 | 61 | 41 | 9.0 | 15.0 | 0.00 | 0.00 | 0.00 | 68 | 1008.7 |
| 20260510180950 | 61 | 39 | 9.0 | 16.0 | 0.00 | 0.00 | 0.00 | 66 | 1008.7 |
| 20260510175950 | 62 | 40 | 8.0 | 15.0 | 0.00 | 0.00 | 0.00 | 66 | 1008.8 |
| 20260510174950 | 62 | 23 | 7.0 | 10.0 | 0.00 | 0.00 | 0.00 | 67 | 1008.8 |
| 20260510173950 | 62 | 358 | 8.0 | 14.0 | 0.00 | 0.00 | 0.00 | 67 | 1008.7 |
| 20260510172951 | 62 | 6 | 9.0 | 14.0 | 0.00 | 0.00 | 0.00 | 66 | 1008.8 |
| 20260510171950 | 62 | 8 | 10.0 | 17.0 | 0.00 | 0.00 | 0.00 | 66 | 1008.8 |
| 20260510170950 | 63 | 355 | 10.0 | 18.0 | 0.00 | 0.00 | 0.00 | 66 | 1008.7 |
| 20260510165950 | 63 | 358 | 11.0 | 17.0 | 0.00 | 0.00 | 0.00 | 65 | 1008.9 |
| 20260510164950 | 63 | 340 | 11.0 | 16.0 | 0.00 | 0.00 | 0.00 | 65 | 1008.9 |
| 20260510163950 | 63 | 331 | 12.0 | 18.0 | 0.00 | 0.00 | 0.00 | 65 | 1009.0 |
| 20260510162950 | 64 | 342 | 11.0 | 19.0 | 0.00 | 0.00 | 0.00 | 64 | 1009.2 |
| 20260510161951 | 64 | 17 | 9.0 | 15.0 | 0.00 | 0.00 | 0.00 | 61 | 1009.2 |
| 20260510160950 | 65 | 20 | 9.0 | 14.0 | 0.00 | 0.00 | 0.00 | 58 | 1009.2 |
| 20260510155951 | 65 | 11 | 9.0 | 16.0 | 0.00 | 0.00 | 0.00 | 58 | 1009.3 |
| 20260510154951 | 65 | 14 | 10.0 | 17.0 | 0.00 | 0.00 | 0.00 | 59 | 1009.3 |
| 20260510152950 | 66 | 17 | 10.0 | 15.0 | 0.00 | 0.00 | 0.00 | 58 | 1009.8 |
| 20260510151951 | 66 | 42 | 11.0 | 17.0 | 0.00 | 0.00 | 0.00 | 58 | 1009.8 |
| 20260510150951 | 66 | 17 | 10.0 | 17.0 | 0.00 | 0.00 | 0.00 | 58 | 1009.8 |
| 20260510145952 | 66 | 10 | 10.0 | 16.0 | 0.00 | 0.00 | 0.00 | 57 | 1010.1 |
| 20260510144950 | 67 | 27 | 9.0 | 16.0 | 0.00 | 0.00 | 0.00 | 59 | 1010.1 |
| 20260510142951 | 66 | 14 | 9.0 | 16.0 | 0.00 | 0.00 | 0.00 | 59 | 1010.6 |
| 20260510141950 | 66 | 32 | 9.0 | 16.0 | 0.00 | 0.00 | 0.00 | 59 | 1010.6 |
| 20260510135951 | 67 | 43 | 11.0 | 17.0 | 0.00 | 0.00 | 0.00 | 57 | 1010.8 |
| 20260510134950 | 66 | 36 | 11.0 | 20.0 | 0.00 | 0.00 | 0.00 | 59 | 1010.8 |
| 20260510133950 | 67 | 34 | 10.0 | 15.0 | 0.00 | 0.00 | 0.00 | 59 | 1010.9 |
| 20260510132952 | 66 | 18 | 8.0 | 15.0 | 0.00 | 0.00 | 0.00 | 58 | 1011.2 |
| 20260510130950 | 66 | 20 | 10.0 | 17.0 | 0.00 | 0.00 | 0.00 | 58 | 1011.3 |
| 20260510125951 | 66 | 25 | 10.0 | 17.0 | 0.00 | 0.00 | 0.00 | 58 | 1011.5 |
| 20260510124951 | 66 | 34 | 11.0 | 16.0 | 0.00 | 0.00 | 0.00 | 58 | 1011.5 |
| 20260510123951 | 66 | 28 | 10.0 | 18.0 | 0.00 | 0.00 | 0.00 | 58 | 1011.8 |
| 20260510122951 | 66 | 36 | 11.0 | 17.0 | 0.00 | 0.00 | 0.00 | 58 | 1011.9 |
| 20260510121951 | 66 | 43 | 9.0 | 15.0 | 0.00 | 0.00 | 0.00 | 61 | 1011.9 |
| 20260510114951 | 65 | 37 | 9.0 | 17.0 | 0.00 | 0.00 | 0.00 | 60 | 1012.4 |
| 20260510112951 | 64 | 24 | 9.0 | 15.0 | 0.00 | 0.00 | 0.00 | 62 | 1012.7 |
| 20260510111951 | 65 | 26 | 9.0 | 16.0 | 0.00 | 0.00 | 0.00 | 61 | 1012.7 |
| 20260510110951 | 64 | 6 | 10.0 | 18.0 | 0.00 | 0.00 | 0.00 | 60 | 1012.8 |
| 20260510105952 | 64 | 19 | 11.0 | 17.0 | 0.00 | 0.00 | 0.00 | 63 | 1012.9 |
| 20260510104951 | 64 | 33 | 10.0 | 16.0 | 0.00 | 0.00 | 0.00 | 62 | 1012.9 |
| 20260510103951 | 64 | 23 | 9.0 | 14.0 | 0.00 | 0.00 | 0.00 | 62 | 1013.1 |
| 20260510102951 | 64 | 33 | 10.0 | 15.0 | 0.00 | 0.00 | 0.00 | 61 | 1013.4 |
| 20260510100952 | 63 | 40 | 11.0 | 16.0 | 0.00 | 0.00 | 0.00 | 67 | 1013.4 |
| 20260510095951 | 63 | 19 | 10.0 | 15.0 | 0.00 | 0.00 | 0.00 | 65 | 1013.4 |
| 20260510091951 | 61 | 45 | 11.0 | 16.0 | 0.00 | 0.00 | 0.00 | 69 | 1013.7 |
| 20260510090951 | 60 | 30 | 12.0 | 20.0 | 0.00 | 0.00 | 0.00 | 70 | 1013.9 |
| 20260510085952 | 60 | 43 | 11.0 | 16.0 | 0.00 | 0.00 | 0.00 | 72 | 1013.9 |
| 20260510084951 | 60 | 41 | 10.0 | 16.0 | 0.00 | 0.00 | 0.00 | 71 | 1013.9 |
| 20260510083952 | 60 | 29 | 8.0 | 16.0 | 0.00 | 0.00 | 0.00 | 72 | 1013.9 |
| 20260510082952 | 59 | 32 | 10.0 | 16.0 | 0.00 | 0.00 | 0.00 | 74 | 1014.0 |
| 20260510081952 | 59 | 34 | 11.0 | 17.0 | 0.00 | 0.00 | 0.00 | 75 | 1014.0 |
| 20260510080951 | 58 | 34 | 11.0 | 17.0 | 0.00 | 0.00 | 0.00 | 76 | 1014.1 |
| 20260510075952 | 58 | 14 | 8.0 | 14.0 | 0.00 | 0.00 | 0.00 | 77 | 1014.1 |
| 20260510074951 | 57 | 16 | 9.0 | 14.0 | 0.00 | 0.00 | 0.00 | 78 | 1014.1 |
| 20260510073952 | 57 | 31 | 8.0 | 14.0 | 0.00 | 0.00 | 0.00 | 80 | 1014.1 |
| 20260510072952 | 57 | 21 | 8.0 | 14.0 | 0.00 | 0.00 | 0.00 | 80 | 1014.3 |
| 20260510070952 | 56 | 30 | 8.0 | 15.0 | 0.00 | 0.00 | 0.00 | 81 | 1014.4 |
| 20260510065952 | 55 | 23 | 6.0 | 10.0 | 0.00 | 0.00 | 0.00 | 84 | 1014.4 |
| 20260510064952 | 54 | 30 | 5.0 | 10.0 | 0.00 | 0.00 | 0.00 | 85 | 1014.4 |
| 20260510063951 | 54 | 8 | 5.0 | 8.0 | 0.00 | 0.00 | 0.00 | 87 | 1014.4 |
| 20260510062952 | 53 | 13 | 5.0 | 10.0 | 0.00 | 0.00 | 0.00 | 87 | 1014.4 |
| 20260510061952 | 52 | 26 | 5.0 | 9.0 | 0.00 | 0.00 | 0.00 | 88 | 1014.4 |
| 20260510060952 | 52 | 5 | 5.0 | 8.0 | 0.00 | 0.00 | 0.00 | 90 | 1014.4 |
| 20260510054952 | 50 | 4 | 4.0 | 7.0 | 0.00 | 0.00 | 0.00 | 93 | 1014.4 |
| 20260510053951 | 49 | 10 | 4.0 | 6.0 | 0.00 | 0.00 | 0.00 | 93 | 1014.4 |
| 20260510052952 | 49 | 7 | 4.0 | 5.0 | 0.00 | 0.00 | 0.00 | 94 | 1014.4 |
| 20260510050954 | 48 | 10 | 2.0 | 4.0 | 0.00 | 0.00 | 0.00 | 94 | 1014.4 |
| 20260510045952 | 48 | 7 | 2.0 | 3.0 | 0.00 | 0.00 | 0.00 | 94 | 1014.4 |
| 20260510044952 | 48 | 19 | 2.0 | 4.0 | 0.00 | 0.00 | 0.00 | 94 | 1014.4 |
| 20260510043952 | 47 | 11 | 2.0 | 5.0 | 0.00 | 0.00 | 0.00 | 94 | 1014.4 |
| 20260510042952 | 47 | 14 | 3.0 | 4.0 | 0.00 | 0.00 | 0.00 | 94 | 1014.4 |
| 20260510041952 | 47 | 18 | 2.0 | 4.0 | 0.00 | 0.00 | 0.00 | 94 | 1014.4 |
| 20260510040953 | 47 | 9 | 1.0 | 4.0 | 0.00 | 0.00 | 0.00 | 94 | 1014.4 |
| 20260510035954 | 47 | 17 | 2.0 | 4.0 | 0.00 | 0.00 | 0.00 | 94 | 1014.4 |
| 20260510034952 | 47 | 13 | 3.0 | 4.0 | 0.00 | 0.00 | 0.00 | 93 | 1014.4 |
| 20260510033952 | 48 | 14 | 2.0 | 4.0 | 0.00 | 0.00 | 0.00 | 93 | 1014.4 |
| 20260510032952 | 48 | 17 | 2.0 | 4.0 | 0.00 | 0.00 | 0.00 | 94 | 1014.4 |
| 20260510030953 | 48 | 21 | 2.0 | 4.0 | 0.00 | 0.00 | 0.00 | 94 | 1014.4 |
| 20260510025953 | 48 | 14 | 2.0 | 4.0 | 0.00 | 0.00 | 0.00 | 93 | 1014.4 |
| 20260510024952 | 48 | 11 | 2.0 | 4.0 | 0.00 | 0.00 | 0.00 | 93 | 1014.4 |
| 20260510023952 | 48 | 8 | 3.0 | 5.0 | 0.00 | 0.00 | 0.00 | 93 | 1014.4 |
| 20260510022952 | 48 | 16 | 2.0 | 4.0 | 0.00 | 0.00 | 0.00 | 93 | 1014.4 |
| 20260510021952 | 48 | 342 | 3.0 | 6.0 | 0.00 | 0.00 | 0.00 | 93 | 1014.4 |
| 20260510020953 | 47 | 309 | 4.0 | 6.0 | 0.00 | 0.00 | 0.00 | 93 | 1014.5 |
| 20260510015953 | 47 | 296 | 4.0 | 6.0 | 0.00 | 0.00 | 0.00 | 92 | 1014.6 |
| 20260510014953 | 47 | 292 | 4.0 | 6.0 | 0.00 | 0.00 | 0.00 | 92 | 1014.6 |
| 20260510013953 | 48 | 340 | 1.0 | 3.0 | 0.00 | 0.00 | 0.00 | 92 | 1014.9 |
| 20260510012953 | 48 | 356 | 0.0 | 2.0 | 0.00 | 0.00 | 0.00 | 91 | 1014.8 |
| 20260510011952 | 48 | 2 | 1.0 | 3.0 | 0.00 | 0.00 | 0.00 | 91 | 1014.8 |
| 20260510010954 | 48 | 295 | 3.0 | 5.0 | 0.00 | 0.00 | 0.00 | 91 | 1014.7 |
| 20260510005953 | 49 | 293 | 4.0 | 5.0 | 0.00 | 0.00 | 0.00 | 89 | 1014.9 |
| 20260510004952 | 49 | 294 | 2.0 | 4.0 | 0.00 | 0.00 | 0.00 | 89 | 1014.9 |
| 20260510003952 | 50 | 291 | 2.0 | 4.0 | 0.00 | 0.00 | 0.00 | 88 | 1014.9 |
| 20260510002954 | 50 | 287 | 3.0 | 5.0 | 0.00 | 0.00 | 0.00 | 87 | 1014.9 |
| 20260510001953 | 50 | 286 | 4.0 | 5.0 | 0.00 | 0.00 | 0.00 | 87 | 1014.9 |
| 20260510000953 | 51 | 342 | 2.0 | 4.0 | 0.00 | 0.00 | 0.00 | 87 | 1015.0 |
| 20260509235953 | 51 | 9 | 1.0 | 4.0 | 0.00 | 0.00 | 0.00 | 87 | 1015.0 |
| 20260509234953 | 51 | 8 | 3.0 | 4.0 | 0.00 | 0.00 | 0.00 | 86 | 1015.0 |
| 20260509233953 | 51 | 10 | 3.0 | 5.0 | 0.00 | 0.00 | 0.00 | 86 | 1015.0 |
| 20260509232954 | 51 | 7 | 4.0 | 6.0 | 0.00 | 0.00 | 0.00 | 86 | 1015.0 |
| 20260509231953 | 51 | 4 | 4.0 | 6.0 | 0.00 | 0.00 | 0.00 | 86 | 1015.0 |
| 20260509230954 | 51 | 6 | 4.0 | 6.0 | 0.00 | 0.00 | 0.00 | 85 | 1015.3 |
| 20260509225953 | 51 | 2 | 3.0 | 5.0 | 0.00 | 0.00 | 0.00 | 84 | 1015.3 |
| 20260509223953 | 52 | 335 | 4.0 | 5.0 | 0.00 | 0.00 | 0.00 | 82 | 1015.4 |
| 20260509222953 | 53 | 18 | 2.0 | 4.0 | 0.00 | 0.00 | 0.00 | 82 | 1015.4 |
| 20260509220953 | 53 | 3 | 4.0 | 6.0 | 0.00 | 0.00 | 0.00 | 80 | 1015.2 |
| 20260509215957 | 54 | 4 | 4.0 | 6.0 | 0.00 | 0.00 | 0.00 | 79 | 1015.2 |
| 20260509213953 | 55 | 11 | 3.0 | 5.0 | 0.00 | 0.00 | 0.00 | 76 | 1015.3 |
| 20260509211953 | 56 | 20 | 3.0 | 7.0 | 0.00 | 0.00 | 0.00 | 73 | 1015.3 |
| 20260509210953 | 57 | 12 | 4.0 | 7.0 | 0.00 | 0.00 | 0.00 | 73 | 1015.4 |
| 20260509205954 | 57 | 8 | 4.0 | 7.0 | 0.00 | 0.00 | 0.00 | 72 | 1015.5 |
| 20260509204953 | 57 | 17 | 4.0 | 6.0 | 0.00 | 0.00 | 0.00 | 71 | 1015.5 |
| 20260509203953 | 58 | 19 | 3.0 | 6.0 | 0.00 | 0.00 | 0.00 | 70 | 1015.5 |
| 20260509202953 | 58 | 19 | 3.0 | 6.0 | 0.00 | 0.00 | 0.00 | 68 | 1015.4 |
| 20260509201953 | 59 | 23 | 3.0 | 6.0 | 0.00 | 0.00 | 0.00 | 67 | 1015.4 |
| 20260509200954 | 59 | 16 | 4.0 | 8.0 | 0.00 | 0.00 | 0.00 | 66 | 1015.3 |
| 20260509195953 | 59 | 16 | 5.0 | 8.0 | 0.00 | 0.00 | 0.00 | 66 | 1015.5 |
| 20260509194953 | 59 | 12 | 4.0 | 7.0 | 0.00 | 0.00 | 0.00 | 67 | 1015.5 |
| 20260509192953 | 60 | 9 | 3.0 | 5.0 | 0.00 | 0.00 | 0.00 | 66 | 1015.1 |